Time;durP1;ratioP1;P1;durP2;ratioP2;P2;SDS_P1;SDS_P2;PMS_P1;PMS_P2;Temp;Humidity;BMP_temperature;BMP_pressure;BME280_temperature;BME280_humidity;BME280_pressure;Samples;Min_cycle;Max_cycle;Signal;HPM_P1;HPM_P2
2022/07/21 00:00:27;;;;;;;4.45;1.30;;;13.70;99.90;;;13.66;88.73;99376.13;5025433;28;131298;-74
2022/07/21 00:02:59;;;;;;;1.95;1.27;;;13.70;99.90;;;13.69;88.85;99371.13;5005532;28;121897;-72
2022/07/21 00:05:28;;;;;;;3.00;1.50;;;13.70;99.90;;;13.64;89.19;99374.84;5004105;28;122381;-73
2022/07/21 00:07:57;;;;;;;4.07;1.52;;;13.70;99.90;;;13.64;89.47;99369.41;5021838;28;130432;-73
2022/07/21 00:10:27;;;;;;;2.78;1.42;;;13.70;99.90;;;13.71;89.06;99374.28;5021481;28;129610;-74
2022/07/21 00:12:58;;;;;;;2.30;1.33;;;13.80;99.90;;;13.66;89.59;99367.94;5022344;28;119328;-73
2022/07/21 00:15:28;;;;;;;2.80;1.40;;;13.70;99.90;;;13.60;89.86;99369.28;4990572;28;118930;-74
2022/07/21 00:17:58;;;;;;;4.47;1.40;;;13.70;99.90;;;13.58;90.22;99366.06;5023044;28;128821;-72
2022/07/21 00:20:30;;;;;;;4.47;1.55;;;13.70;99.90;;;13.56;90.06;99368.34;5007095;28;128096;-74
2022/07/21 00:22:59;;;;;;;3.10;1.33;;;13.80;99.90;;;13.62;90.07;99366.22;5022137;28;119911;-74
2022/07/21 00:25:29;;;;;;;2.38;1.15;;;13.70;99.90;;;13.56;90.31;99368.34;5007058;28;119303;-75
2022/07/21 00:27:58;;;;;;;3.60;1.30;;;13.70;99.90;;;13.43;91.35;99370.22;5004306;28;128611;-74
2022/07/21 00:30:27;;;;;;;3.70;1.23;;;13.60;99.90;;;13.45;91.38;99367.16;5021612;28;130365;-72
2022/07/21 00:32:56;;;;;;;3.15;1.23;;;13.60;99.90;;;13.39;91.65;99368.50;5021696;28;120193;-73
2022/07/21 00:35:24;;;;;;;4.47;1.60;;;13.60;99.90;;;13.38;91.96;99367.69;5021748;28;119864;-71
2022/07/21 00:37:53;;;;;;;5.03;1.60;;;13.50;99.90;;;13.36;92.08;99366.44;5005848;28;128874;-73
2022/07/21 00:40:22;;;;;;;3.90;0.98;;;13.60;99.90;;;13.34;92.45;99365.94;5006173;28;129246;-75
2022/07/21 00:42:52;;;;;;;4.30;1.20;;;13.60;99.90;;;13.37;92.13;99362.56;5003580;28;119625;-74
2022/07/21 00:45:21;;;;;;;3.97;1.10;;;13.50;99.90;;;13.40;92.31;99364.63;5021866;28;120731;-72
2022/07/21 00:47:51;;;;;;;7.18;1.63;;;13.50;99.90;;;13.29;92.86;99362.28;5006483;28;128901;-74
2022/07/21 00:50:21;;;;;;;2.80;1.20;;;13.50;99.90;;;13.30;92.74;99363.06;5006249;28;129378;-70
2022/07/21 00:52:51;;;;;;;4.65;1.08;;;13.40;99.90;;;13.33;92.81;99367.06;5020338;28;122235;-75
2022/07/21 00:55:22;;;;;;;3.40;1.30;;;13.40;99.90;;;13.26;93.25;99360.22;5006288;28;122576;-77
2022/07/21 00:57:54;;;;;;;3.88;1.45;;;13.40;99.90;;;13.25;93.16;99358.63;5005637;28;128674;-74
2022/07/21 01:00:27;;;;;;;3.55;1.38;;;13.30;99.90;;;13.22;93.45;99356.56;4989260;28;129170;-74
2022/07/21 01:02:56;;;;;;;4.05;1.27;;;13.30;99.90;;;13.21;93.62;99357.69;5003269;28;120097;-75
2022/07/21 01:05:26;;;;;;;6.35;1.48;;;13.20;99.90;;;13.14;94.51;99360.16;5021756;28;120663;-74
2022/07/21 01:07:58;;;;;;;3.55;1.42;;;13.30;99.90;;;13.12;94.68;99365.16;5021349;28;130627;-76
2022/07/21 01:10:27;;;;;;;9.30;1.60;;;13.20;99.90;;;13.08;95.17;99362.25;5021048;28;129264;-76
2022/07/21 01:12:58;;;;;;;4.60;1.60;;;13.20;99.90;;;13.15;94.85;99364.47;5021605;28;120334;-75
2022/07/21 01:15:27;;;;;;;5.03;1.50;;;13.10;99.90;;;13.20;94.65;99358.81;5006141;28;119255;-76
2022/07/21 01:17:56;;;;;;;7.40;1.40;;;13.00;99.90;;;13.21;94.95;99360.41;5019510;28;129958;-74
2022/07/21 01:20:26;;;;;;;5.28;1.70;;;12.90;99.90;;;13.16;95.08;99354.38;5005745;28;129133;-75
2022/07/21 01:22:58;;;;;;;2.45;1.33;;;12.90;99.90;;;13.01;95.93;99353.84;5021035;28;119294;-73
2022/07/21 01:25:27;;;;;;;3.65;1.30;;;13.00;99.90;;;13.01;95.96;99351.13;5006734;28;119137;-73
2022/07/21 01:27:56;;;;;;;3.10;1.35;;;13.00;99.90;;;12.93;96.60;99350.03;5005642;28;130223;-73
2022/07/21 01:30:25;;;;;;;3.75;1.25;;;13.00;99.90;;;12.98;96.46;99349.06;5020539;28;130423;-75
2022/07/21 01:32:55;;;;;;;2.45;1.17;;;13.00;99.90;;;12.87;97.08;99348.66;5005734;28;119042;-74
2022/07/21 01:35:23;;;;;;;3.50;1.30;;;13.00;99.90;;;12.82;97.38;99346.09;4989572;28;118548;-73
2022/07/21 01:37:52;;;;;;;2.33;1.35;;;13.00;99.90;;;12.83;97.23;99346.91;5018279;28;130143;-73
2022/07/21 01:43:08;;;;;;;4.78;1.70;;;13.00;99.90;;;12.77;97.71;99351.75;5004319;28;122806;-73
2022/07/21 01:45:36;;;;;;;3.22;1.33;;;12.90;99.90;;;12.71;98.54;99361.22;5020958;28;121883;-73
2022/07/21 01:48:07;;;;;;;3.30;1.48;;;12.90;99.90;;;12.69;98.45;99361.56;5005653;28;129427;-73
2022/07/21 01:50:36;;;;;;;6.40;1.80;;;12.80;99.90;;;12.63;99.45;99364.78;5020349;28;129900;-71
2022/07/21 01:53:04;;;;;;;5.57;2.22;;;12.80;99.90;;;12.66;99.70;99361.41;5020872;28;119311;-73
2022/07/21 01:55:35;;;;;;;2.85;1.50;;;12.80;99.90;;;12.62;100.00;99371.34;5022532;28;118690;-76
2022/07/21 01:58:04;;;;;;;4.47;1.77;;;12.80;99.90;;;12.52;100.00;99375.25;5026377;27;130922;-74
2022/07/21 02:00:32;;;;;;;3.30;1.90;;;12.70;99.90;;;12.42;100.00;99368.25;5040867;27;129899;-73
2022/07/21 02:03:01;;;;;;;4.47;2.50;;;12.70;99.90;;;12.47;100.00;99373.50;5042934;27;119423;-74
2022/07/21 02:05:30;;;;;;;3.45;1.85;;;12.70;99.90;;;12.51;100.00;99376.38;5025340;27;118424;-74
2022/07/21 02:07:58;;;;;;;4.13;2.20;;;12.70;99.90;;;12.54;100.00;99373.81;5038794;27;130004;-74
2022/07/21 02:10:27;;;;;;;3.85;1.80;;;12.70;99.90;;;12.59;100.00;99368.19;5025204;27;128920;-73
2022/07/21 02:12:57;;;;;;;7.28;2.10;;;12.60;99.90;;;12.66;100.00;99372.31;5025538;27;118770;-72
2022/07/21 02:15:26;;;;;;;3.05;1.70;;;12.60;99.90;;;12.54;100.00;99359.38;5040491;27;119369;-74
2022/07/21 02:17:54;;;;;;;3.58;2.08;;;12.60;99.90;;;12.62;100.00;99363.19;5022051;27;129989;-73
2022/07/21 02:20:23;;;;;;;3.25;1.70;;;12.60;99.90;;;12.65;100.00;99363.31;5008515;27;128721;-73
2022/07/21 02:22:52;;;;;;;9.93;3.00;;;12.60;99.90;;;12.50;100.00;99364.69;5022353;27;119338;-73
2022/07/21 02:25:21;;;;;;;3.70;1.90;;;12.60;99.90;;;12.44;100.00;99362.50;5008220;27;118357;-73
2022/07/21 02:27:50;;;;;;;4.35;1.95;;;12.60;99.90;;;12.51;100.00;99363.59;5039608;27;129911;-72
2022/07/21 02:30:20;;;;;;;4.75;2.05;;;12.60;99.90;;;12.54;100.00;99360.22;5008046;27;129004;-73
2022/07/21 02:32:49;;;;;;;5.07;2.47;;;12.60;99.90;;;12.67;100.00;99354.81;5024101;27;121326;-73
2022/07/21 02:35:18;;;;;;;4.90;2.15;;;12.60;99.90;;;12.75;100.00;99345.84;5040143;27;121938;-74
2022/07/21 02:37:47;;;;;;;3.65;2.10;;;12.60;99.90;;;12.86;100.00;99338.09;5021804;27;130429;-73
2022/07/21 02:40:16;;;;;;;4.03;2.13;;;12.70;99.90;;;12.89;100.00;99338.22;5039497;27;130017;-75
2022/07/21 02:42:44;;;;;;;6.07;2.10;;;12.70;99.90;;;12.89;100.00;99327.31;5039859;27;119562;-74
2022/07/21 02:45:12;;;;;;;6.22;1.92;;;12.80;99.90;;;12.97;100.00;99338.50;5024989;27;119034;-75
2022/07/21 02:47:54;;;;;;;4.07;2.08;;;12.80;99.90;;;13.02;100.00;99324.66;5039439;27;130367;-73
2022/07/21 02:50:25;;;;;;;6.47;1.95;;;12.90;99.90;;;13.08;100.00;99334.22;5042104;27;129162;-75
2022/07/21 02:52:57;;;;;;;3.40;2.05;;;12.90;99.90;;;13.18;100.00;99333.81;5044656;27;119346;-74
2022/07/21 02:55:26;;;;;;;3.75;1.85;;;13.00;99.90;;;13.34;100.00;99322.34;5028881;27;118366;-73
2022/07/21 02:58:07;;;;;;;3.47;1.90;;;13.00;99.90;;;13.36;100.00;99325.56;5024081;27;130160;-73
2022/07/21 03:00:37;;;;;;;4.15;1.85;;;13.00;99.90;;;13.39;100.00;99324.88;5010627;27;128051;-75
2022/07/21 03:03:08;;;;;;;4.10;2.17;;;13.10;99.90;;;13.56;100.00;99330.16;5027795;27;119474;-77
2022/07/21 03:05:38;;;;;;;5.82;2.17;;;13.20;99.90;;;13.41;100.00;99322.63;5043437;27;119718;-71
2022/07/21 03:08:09;;;;;;;3.90;2.00;;;13.20;99.90;;;13.46;100.00;99322.41;5042876;27;130287;-73
2022/07/21 03:10:39;;;;;;;2.53;1.73;;;13.30;99.90;;;13.44;100.00;99324.66;5027804;27;128737;-75
2022/07/21 03:13:08;;;;;;;4.97;2.05;;;13.30;99.90;;;13.97;100.00;99316.75;5025050;27;119634;-75
2022/07/21 03:15:38;;;;;;;4.20;2.05;;;13.70;99.90;;;14.82;99.19;99326.13;5045796;27;118428;-74
2022/07/21 03:18:09;;;;;;;2.85;1.40;;;14.30;99.90;;;15.91;92.28;99319.81;5028004;27;128895;-73
2022/07/21 03:20:40;;;;;;;3.67;1.40;;;15.00;99.90;;;16.66;86.39;99317.31;5046011;27;128919;-75
2022/07/21 03:23:09;;;;;;;4.18;1.45;;;15.20;99.90;;;16.91;83.89;99317.06;5010057;27;121102;-79
2022/07/21 03:25:38;;;;;;;2.72;1.33;;;15.20;99.90;;;17.22;80.69;99321.66;5028230;27;121435;-74
2022/07/21 03:28:07;;;;;;;4.00;1.80;;;15.20;99.90;;;17.07;81.52;99323.31;5042530;27;129844;-73
2022/07/21 03:30:36;;;;;;;2.97;1.60;;;15.30;99.90;;;16.70;83.09;99332.66;5042557;27;129567;-74
2022/07/21 03:33:05;;;;;;;2.95;1.42;;;14.80;99.90;;;15.62;89.40;99329.16;5043075;27;119970;-76
2022/07/21 03:35:36;;;;;;;3.90;1.70;;;14.30;99.90;;;15.37;91.84;99325.75;5011154;27;118702;-76
2022/07/21 03:38:06;;;;;;;3.03;1.65;;;14.20;99.90;;;15.14;93.73;99328.22;5042159;27;130105;-76
2022/07/21 03:40:38;;;;;;;3.05;1.67;;;14.20;99.90;;;15.27;93.91;99327.81;5042793;27;129514;-73
2022/07/21 03:43:08;;;;;;;5.50;1.75;;;14.30;99.90;;;15.26;94.02;99326.22;5042774;27;119894;-72
2022/07/21 03:45:38;;;;;;;3.65;1.65;;;14.40;99.90;;;15.38;93.64;99328.13;5010583;27;118462;-74
2022/07/21 03:48:08;;;;;;;5.10;2.03;;;14.40;99.90;;;15.15;94.68;99330.59;5009222;27;129531;-75
2022/07/21 03:50:42;;;;;;;4.80;1.85;;;14.40;99.90;;;14.98;97.07;99337.13;5041867;27;130398;-75
2022/07/21 03:53:11;;;;;;;3.28;1.65;;;14.40;99.90;;;14.95;97.37;99337.81;5027592;27;119131;-75
2022/07/21 03:55:40;;;;;;;6.20;1.90;;;14.40;99.90;;;15.20;96.64;99330.34;5041572;27;119367;-74
2022/07/21 03:58:09;;;;;;;3.83;1.85;;;14.60;99.90;;;15.37;95.67;99342.94;5038184;27;129900;-76
2022/07/21 04:00:41;;;;;;;3.50;1.95;;;14.70;99.90;;;15.21;96.77;99345.63;5021378;28;129542;-74
2022/07/21 04:03:11;;;;;;;4.25;2.00;;;14.70;99.90;;;15.14;96.94;99348.13;4990582;28;119239;-73
2022/07/21 04:05:43;;;;;;;5.85;2.15;;;14.70;99.90;;;15.06;98.52;99349.84;5007634;28;118367;-73
2022/07/21 04:08:13;;;;;;;5.18;2.13;;;14.70;99.90;;;15.25;97.58;99351.19;5006878;28;128673;-75
2022/07/21 04:10:44;;;;;;;5.00;1.83;;;14.80;99.90;;;15.49;96.21;99349.50;5006948;28;129483;-75
2022/07/21 04:13:15;;;;;;;5.95;2.13;;;15.00;99.90;;;15.57;95.51;99349.34;5020640;28;122362;-74
2022/07/21 04:15:44;;;;;;;3.13;1.83;;;15.10;99.90;;;15.70;94.43;99352.81;5021910;28;122115;-76
2022/07/21 04:18:13;;;;;;;3.47;1.90;;;15.00;99.90;;;15.86;94.24;99346.63;5006871;28;128479;-74
2022/07/21 04:20:43;;;;;;;4.47;1.90;;;15.20;99.90;;;15.89;93.35;99351.41;5021652;28;129552;-74
2022/07/21 04:23:12;;;;;;;4.95;2.25;;;15.30;99.90;;;16.20;91.70;99339.69;5021916;28;119953;-76
2022/07/21 04:25:40;;;;;;;3.90;2.00;;;15.40;99.90;;;15.90;92.72;99342.03;5007213;28;118340;-75
2022/07/21 04:28:11;;;;;;;3.63;2.10;;;15.40;99.90;;;15.88;94.02;99344.31;5021397;28;130077;-76
2022/07/21 04:30:39;;;;;;;7.80;1.95;;;15.40;99.90;;;16.09;92.72;99341.34;5021013;28;129591;-78
2022/07/21 04:33:08;;;;;;;3.90;2.00;;;15.50;99.90;;;15.98;92.67;99338.34;5020966;28;120054;-74
2022/07/21 04:35:36;;;;;;;4.38;1.83;;;15.50;99.90;;;16.09;92.86;99344.88;5006939;28;120335;-74
2022/07/21 04:38:07;;;;;;;3.72;2.15;;;15.60;99.90;;;16.38;91.25;99351.09;5020509;28;130615;-75
2022/07/21 04:40:35;;;;;;;5.28;2.10;;;15.80;99.90;;;16.14;91.70;99352.84;5021201;28;130609;-74
2022/07/21 04:43:04;;;;;;;4.22;2.10;;;15.70;99.90;;;16.26;91.09;99348.44;5020779;28;119710;-76
2022/07/21 04:45:32;;;;;;;4.85;1.88;;;15.70;99.90;;;16.46;90.60;99341.09;5021348;28;119548;-76
2022/07/21 04:48:01;;;;;;;4.05;1.77;;;15.90;99.90;;;16.42;90.41;99351.94;5021284;28;129634;-76
2022/07/21 04:50:31;;;;;;;3.90;2.20;;;15.90;99.90;;;16.47;88.56;99348.16;5021321;28;129773;-74
2022/07/21 04:53:00;;;;;;;5.03;1.80;;;15.90;99.90;;;16.32;89.45;99349.75;5020934;28;119497;-77
2022/07/21 04:55:31;;;;;;;4.32;2.17;;;15.90;99.90;;;16.40;89.05;99337.81;5021532;28;119320;-76
2022/07/21 04:57:59;;;;;;;6.22;2.17;;;15.90;99.90;;;16.28;89.38;99346.13;5010975;27;129048;-73
2022/07/21 05:00:28;;;;;;;5.72;2.25;;;15.90;99.90;;;16.56;88.11;99342.50;5041305;27;130077;-74
2022/07/21 05:02:57;;;;;;;4.00;2.10;;;16.00;99.90;;;16.76;88.25;99344.13;5025153;27;121274;-75
2022/07/21 05:05:26;;;;;;;5.40;2.38;;;16.30;99.90;;;16.74;87.29;99340.97;5009609;27;121249;-75
2022/07/21 05:07:55;;;;;;;4.93;2.15;;;16.30;99.90;;;16.76;86.46;99337.88;5039815;27;130329;-74
2022/07/21 05:10:24;;;;;;;3.65;2.00;;;16.40;99.90;;;16.91;85.97;99339.81;5040865;27;129461;-74
2022/07/21 05:12:54;;;;;;;5.85;2.40;;;16.40;99.90;;;16.90;85.61;99335.47;5026596;27;120838;-78
2022/07/21 05:15:22;;;;;;;5.30;2.30;;;16.40;99.90;;;17.15;84.74;99344.22;5040450;27;119490;-75
2022/07/21 05:17:51;;;;;;;4.22;2.10;;;16.60;99.90;;;17.34;84.44;99337.16;5042768;27;128658;-72
2022/07/21 05:20:19;;;;;;;4.65;2.28;;;16.80;99.90;;;17.44;83.77;99339.34;5026470;27;128608;-73
2022/07/21 05:22:47;;;;;;;5.60;3.00;;;16.80;99.90;;;17.49;82.44;99341.78;5041212;27;120569;-77
2022/07/21 05:25:16;;;;;;;5.10;2.33;;;16.80;99.90;;;17.13;83.71;99352.03;5041160;27;119391;-75
2022/07/21 05:27:45;;;;;;;4.95;1.95;;;16.60;99.90;;;17.19;83.38;99353.34;5038452;27;130014;-72
2022/07/21 05:30:15;;;;;;;4.05;2.28;;;16.70;99.90;;;17.41;84.05;99340.06;5026027;27;129449;-74
2022/07/21 05:32:44;;;;;;;4.05;1.98;;;16.90;99.90;;;17.48;82.40;99348.41;5026257;27;118657;-74
2022/07/21 05:35:12;;;;;;;4.40;2.00;;;17.00;99.90;;;17.40;82.09;99342.00;5040952;27;119708;-73
2022/07/21 05:37:41;;;;;;;7.22;1.90;;;16.90;99.90;;;17.35;81.56;99342.28;5040451;27;130355;-73
2022/07/21 05:40:12;;;;;;;3.83;1.90;;;16.80;99.90;;;17.76;80.69;99341.91;5040930;27;129702;-75
2022/07/21 05:42:40;;;;;;;3.35;1.85;;;17.00;99.90;;;17.73;79.78;99337.94;5022782;27;119552;-78
2022/07/21 05:45:11;;;;;;;3.25;1.80;;;17.10;99.90;;;17.71;80.33;99342.19;5041307;27;119999;-74
2022/07/21 05:47:42;;;;;;;5.78;1.90;;;17.20;99.90;;;17.58;80.33;99347.84;5040759;27;131753;-74
2022/07/21 05:50:12;;;;;;;3.53;1.92;;;17.20;99.90;;;17.88;79.26;99351.94;5042364;27;129763;-73
2022/07/21 05:52:41;;;;;;;5.95;2.17;;;17.30;99.90;;;18.05;78.80;99346.00;5040410;27;122592;-73
2022/07/21 05:55:10;;;;;;;3.63;1.60;;;17.30;99.90;;;18.20;79.25;99340.72;5023329;27;121567;-75
2022/07/21 05:57:39;;;;;;;4.40;1.80;;;17.70;99.90;;;18.62;76.88;99346.13;5016347;28;129996;-73
2022/07/21 06:00:10;;;;;;;4.65;1.88;;;17.80;99.90;;;19.15;73.44;99339.03;5001753;28;128359;-77
2022/07/21 06:02:40;;;;;;;4.80;1.50;;;18.00;99.90;;;19.40;72.28;99334.63;5012209;28;119590;-75
2022/07/21 06:05:10;;;;;;;3.75;1.52;;;18.20;99.90;;;19.57;71.01;99329.69;4991910;28;118310;-75
2022/07/21 06:07:39;;;;;;;3.03;1.67;;;18.40;99.90;;;19.45;70.65;99341.00;4998910;28;130025;-75
2022/07/21 06:10:09;;;;;;;4.60;1.55;;;18.20;99.90;;;19.13;72.17;99338.63;4981760;28;129217;-77
2022/07/21 06:12:38;;;;;;;4.22;1.70;;;18.20;99.90;;;19.18;70.97;99335.53;4999864;28;119775;-78
2022/07/21 06:15:08;;;;;;;2.72;1.50;;;18.30;99.90;;;19.21;70.63;99332.03;5002444;28;117796;-75
2022/07/21 06:17:42;;;;;;;3.13;1.60;;;18.30;99.90;;;18.81;71.81;99336.22;4983836;28;130267;-80
2022/07/21 06:20:13;;;;;;;3.40;1.35;;;18.20;99.90;;;19.28;71.15;99326.63;4982835;28;128269;-76
2022/07/21 06:22:43;;;;;;;4.05;1.70;;;18.40;99.90;;;19.74;68.47;99331.88;5001884;28;118860;-72
2022/07/21 06:25:11;;;;;;;3.75;1.60;;;18.60;99.90;;;19.78;67.92;99325.66;4999710;28;119160;-73
2022/07/21 06:27:40;;;;;;;5.25;2.15;;;18.80;99.90;;;19.33;69.98;99320.78;4999334;28;129823;-73
2022/07/21 06:30:10;;;;;;;6.40;1.55;;;18.50;99.90;;;19.45;70.31;99330.78;5001362;28;128746;-75
2022/07/21 06:32:41;;;;;;;2.83;1.60;;;18.70;99.90;;;19.37;69.25;99324.38;4999126;28;120468;-73
2022/07/21 06:35:10;;;;;;;3.67;1.40;;;18.70;99.90;;;19.51;69.03;99310.00;5000452;28;119279;-72
2022/07/21 06:37:39;;;;;;;3.42;1.67;;;18.80;99.90;;;19.54;68.73;99313.94;4984271;28;130164;-76
2022/07/21 06:40:09;;;;;;;2.67;1.40;;;18.80;99.90;;;19.90;67.97;99314.38;4984602;28;129014;-78
2022/07/21 06:42:38;;;;;;;3.63;1.80;;;19.00;99.70;;;19.84;68.27;99318.63;4997837;28;122041;-74
2022/07/21 06:45:08;;;;;;;4.57;1.80;;;19.10;98.70;;;20.15;68.02;99319.28;4968876;28;120837;-75
2022/07/21 06:47:36;;;;;;;5.63;1.58;;;19.50;96.10;;;20.19;65.04;99320.91;4999649;28;130496;-75
2022/07/21 06:50:09;;;;;;;3.65;1.60;;;19.40;90.20;;;20.04;65.15;99325.50;4984926;28;129583;-77
2022/07/21 06:52:38;;;;;;;3.63;1.58;;;19.30;86.60;;;20.13;65.15;99310.63;4968670;28;118184;-76
2022/07/21 06:55:09;;;;;;;5.80;1.60;;;19.30;89.60;;;20.26;64.33;99311.91;4999539;28;120072;-73
2022/07/21 06:57:38;;;;;;;3.55;1.35;;;19.60;76.20;;;20.16;65.10;99318.13;4998886;28;130256;-73
2022/07/21 07:00:08;;;;;;;3.97;1.50;;;19.50;81.90;;;20.50;65.00;99315.25;4982073;28;129569;-72
2022/07/21 07:02:37;;;;;;;5.53;1.80;;;19.90;78.10;;;20.64;62.62;99312.56;4999784;28;119552;-76
2022/07/21 07:05:08;;;;;;;3.58;1.58;;;19.70;66.30;;;20.63;62.90;99314.56;4999441;28;119433;-73
2022/07/21 07:07:36;;;;;;;2.97;1.48;;;19.70;74.10;;;20.73;63.81;99318.56;4983877;28;129038;-73
2022/07/21 07:10:06;;;;;;;3.40;1.30;;;20.00;75.40;;;20.52;63.26;99329.41;4984529;28;129111;-73
2022/07/21 07:12:36;;;;;;;2.85;1.50;;;19.80;69.80;;;20.24;65.00;99319.75;4999437;28;120230;-73
2022/07/21 07:15:06;;;;;;;3.72;1.38;;;19.70;75.70;;;20.97;62.39;99325.41;4984453;28;118268;-75
2022/07/21 07:17:34;;;;;;;2.75;1.42;;;20.10;60.50;;;21.50;60.31;99320.53;5001156;28;128813;-73
2022/07/21 07:20:05;;;;;;;2.70;1.38;;;20.40;53.30;;;21.26;60.44;99313.72;4981191;28;130562;-77
2022/07/21 07:22:36;;;;;;;4.35;1.60;;;20.10;58.50;;;21.45;60.18;99329.16;4999283;28;120225;-74
2022/07/21 07:25:06;;;;;;;3.85;1.52;;;20.30;54.20;;;21.18;62.30;99316.44;4999849;28;119463;-72
2022/07/21 07:27:34;;;;;;;5.20;1.52;;;20.20;67.80;;;21.41;61.99;99318.13;4977276;28;129355;-74
2022/07/21 07:30:04;;;;;;;5.45;1.40;;;20.50;68.40;;;21.54;61.68;99311.06;4979340;28;131179;-74
2022/07/21 07:32:32;;;;;;;3.65;1.40;;;20.60;61.70;;;21.32;61.61;99310.19;4978189;28;121963;-72
2022/07/21 07:35:01;;;;;;;2.63;1.40;;;20.30;60.70;;;21.48;62.29;99312.59;4979191;28;122226;-74
2022/07/21 07:37:30;;;;;;;6.15;1.70;;;20.60;63.00;;;21.27;63.04;99307.00;4971645;28;129935;-72
2022/07/21 07:40:00;;;;;;;2.78;1.30;;;20.50;66.50;;;22.02;61.34;99309.19;4982068;28;130103;-73
2022/07/21 07:42:28;;;;;;;5.95;1.70;;;20.90;62.00;;;21.87;60.15;99309.16;4977714;28;119817;-72
2022/07/21 07:44:57;;;;;;;3.47;1.70;;;20.80;45.30;;;21.69;59.92;99306.38;4975293;28;118562;-74
2022/07/21 07:47:27;;;;;;;1.95;1.40;;;20.70;47.40;;;21.59;60.73;99300.84;5021418;28;130192;-74
2022/07/21 07:49:55;;;;;;;3.38;1.50;;;20.80;48.70;;;21.73;60.43;99307.16;5008350;28;129619;-75
2022/07/21 07:52:24;;;;;;;2.85;1.40;;;21.00;45.90;;;22.04;61.35;99298.53;5024716;28;119555;-76
2022/07/21 07:54:53;;;;;;;4.28;1.67;;;21.20;52.80;;;22.52;59.02;99300.91;5027209;28;119009;-77
2022/07/21 07:57:23;;;;;;;4.20;1.20;;;21.60;38.70;;;22.12;58.15;99302.09;5024750;28;130122;-75
2022/07/21 07:59:51;;;;;;;4.13;1.15;;;21.20;37.80;;;22.14;58.50;99308.78;5027707;28;129590;-74
2022/07/21 08:02:20;;;;;;;2.80;1.30;;;21.30;38.40;;;22.03;58.50;99303.28;5025555;28;119986;-77
2022/07/21 08:04:48;;;;;;;5.55;1.75;;;21.20;35.00;;;22.72;56.36;99312.31;5024489;28;119720;-75
2022/07/21 08:07:17;;;;;;;2.70;1.50;;;21.40;30.50;;;22.30;57.90;99315.88;5003723;28;130009;-72
2022/07/21 08:09:46;;;;;;;2.83;1.30;;;21.20;34.90;;;22.70;56.46;99311.13;5021912;28;129678;-74
2022/07/21 08:12:14;;;;;;;4.82;1.67;;;21.50;26.20;;;22.83;57.02;99301.25;5020837;28;119679;-77
2022/07/21 08:14:44;;;;;;;4.25;1.40;;;21.60;30.50;;;23.14;56.48;99301.56;5024487;28;119154;-74
2022/07/21 08:17:13;;;;;;;5.25;1.52;;;21.80;32.70;;;23.26;55.39;99292.78;5021830;28;130264;-74
2022/07/21 08:19:42;;;;;;;3.55;1.80;;;21.90;24.50;;;23.39;54.61;99292.34;5021321;28;129818;-75
2022/07/21 08:22:10;;;;;;;3.67;1.58;;;21.70;22.30;;;23.35;55.46;99283.28;5020890;28;122048;-75
2022/07/21 08:24:40;;;;;;;4.00;1.55;;;21.80;24.00;;;22.90;56.18;99276.31;5006731;28;121020;-80
2022/07/21 08:27:08;;;;;;;3.00;1.52;;;21.70;26.00;;;22.44;58.51;99288.28;5006416;28;128914;-75
2022/07/21 08:29:37;;;;;;;2.88;1.60;;;21.70;29.30;;;22.23;57.80;99289.81;5006799;28;131178;-76
2022/07/21 08:32:08;;;;;;;4.45;1.50;;;21.50;23.50;;;22.29;59.51;99270.09;5007420;28;118921;-72
2022/07/21 08:34:36;;;;;;;2.88;1.30;;;21.60;34.80;;;22.51;57.69;99276.41;5021835;28;119443;-74
2022/07/21 08:37:05;;;;;;;5.05;1.30;;;21.80;23.20;;;22.32;57.25;99288.69;5021824;28;129808;-71
2022/07/21 08:39:33;;;;;;;2.90;1.27;;;21.70;16.90;;;22.40;57.00;99288.25;5021745;28;129504;-72
2022/07/21 08:42:19;;;;;;;3.88;1.50;;;21.70;17.80;;;22.40;56.90;99271.69;5022331;28;120754;-72
2022/07/21 08:44:48;;;;;;;4.85;1.52;;;21.70;18.30;;;22.69;58.05;99271.63;5021669;28;119741;-75
2022/07/21 08:47:19;;;;;;;5.38;1.50;;;22.20;21.80;;;22.89;56.50;99288.56;4987877;28;128993;-74
2022/07/21 08:49:49;;;;;;;2.33;1.30;;;22.30;10.00;;;23.03;55.90;99300.78;5003199;28;129207;-75
2022/07/21 08:52:18;;;;;;;2.63;1.20;;;22.10;14.90;;;23.15;56.15;99281.78;5021402;28;121013;-73
2022/07/21 08:54:47;;;;;;;3.70;1.30;;;22.30;17.30;;;23.27;55.71;99277.00;5021535;28;119447;-74
2022/07/21 08:57:15;;;;;;;5.68;1.65;;;22.30;15.20;;;23.78;53.75;99261.63;5020805;28;130594;-75
2022/07/21 08:59:44;;;;;;;3.35;1.20;;;22.60;5.60;;;23.76;51.93;99268.78;5019346;28;130164;-71
2022/07/21 09:02:30;;;;;;;2.97;1.38;;;22.40;1.00;;;23.62;53.82;99267.69;5010234;27;118083;-75
2022/07/21 09:04:59;;;;;;;3.58;1.60;;;22.60;5.20;;;23.43;54.06;99266.19;5026886;27;118866;-76
2022/07/21 09:07:29;;;;;;;6.10;1.67;;;22.50;3.10;;;23.36;53.50;99273.75;5044044;27;129946;-73
2022/07/21 09:09:59;;;;;;;2.83;1.45;;;22.60;1.00;;;23.76;54.58;99263.22;5025238;27;128851;-75
2022/07/21 09:12:29;;;;;;;3.53;1.50;;;22.80;4.20;;;23.47;53.61;99266.19;5040425;27;123297;-74
2022/07/21 09:15:18;;;;;;;3.08;1.50;;;22.50;1.00;;;23.82;52.41;99261.59;5027657;27;121699;-73
2022/07/21 09:18:03;;;;;;;3.80;1.35;;;22.60;1.00;;;24.18;51.76;99253.03;5041316;27;129957;-73
2022/07/21 09:20:32;;;;;;;7.90;1.52;;;22.70;1.00;;;24.37;50.71;99257.19;5040578;27;130619;-75
2022/07/21 09:23:07;;;;;;;2.40;1.30;;;22.90;1.00;;;24.21;50.03;99254.97;5040433;27;119975;-75
2022/07/21 09:25:42;;;;;;;4.10;1.80;;;22.80;1.00;;;23.80;52.33;99250.16;5041194;27;120433;-77
2022/07/21 09:28:16;;;;;;;6.03;1.55;;;22.80;1.00;;;23.37;54.00;99242.13;5040774;27;130043;-77
2022/07/21 09:31:01;;;;;;;4.22;1.30;;;22.50;1.00;;;23.81;54.19;99246.16;5026183;27;128281;-77
2022/07/21 09:33:34;;;;;;;5.38;1.75;;;22.90;1.00;;;24.38;52.82;99236.59;5023273;27;119562;-75
2022/07/21 09:36:08;;;;;;;2.53;1.23;;;23.40;1.00;;;24.29;52.16;99239.84;5041300;27;119045;-73
2022/07/21 09:38:39;;;;;;;4.35;1.73;;;23.40;1.00;;;24.34;52.40;99225.56;5039802;27;130415;-78
2022/07/21 09:41:14;;;;;;;4.35;1.40;;;23.10;1.00;;;24.20;52.13;99231.25;5040832;27;129711;-75
2022/07/21 09:43:46;;;;;;;3.67;1.40;;;23.30;1.00;;;24.15;51.60;99240.78;5040888;27;119621;-75
2022/07/21 09:46:17;;;;;;;2.35;1.20;;;23.30;1.00;;;23.81;51.60;99221.22;5040896;27;119385;-72
2022/07/21 09:48:49;;;;;;;2.03;1.33;;;23.10;1.00;;;23.93;51.93;99229.06;5040242;27;130158;-77
2022/07/21 09:51:28;;;;;;;2.67;1.10;;;23.30;1.00;;;24.34;51.03;99220.00;5040290;27;130089;-72
2022/07/21 09:54:03;;;;;;;2.40;1.10;;;23.50;1.00;;;24.16;50.73;99216.63;5041331;27;119534;-75
2022/07/21 09:56:36;;;;;;;4.18;1.45;;;23.30;1.00;;;24.43;51.41;99221.50;5041248;27;119391;-77
2022/07/21 09:59:06;;;;;;;3.75;1.55;;;23.60;1.00;;;24.89;50.53;99214.66;5042221;27;130451;-72
2022/07/21 10:01:36;;;;;;;6.80;1.75;;;23.70;1.00;;;25.24;49.52;99213.41;5040030;27;129815;-72
2022/07/21 10:04:07;;;;;;;4.07;1.40;;;23.70;1.00;;;25.55;48.61;99204.25;5024756;27;122763;-76
2022/07/21 10:06:39;;;;;;;2.78;1.30;;;23.80;1.00;;;25.82;47.96;99212.53;5040694;27;122331;-73
2022/07/21 10:09:10;;;;;;;2.85;1.35;;;24.20;1.00;;;25.17;49.60;99207.16;5022504;27;129647;-75
2022/07/21 10:11:41;;;;;;;3.70;1.20;;;24.00;1.00;;;25.01;49.44;99211.34;5022743;27;130242;-73
2022/07/21 10:14:11;;;;;;;7.38;1.40;;;23.90;1.00;;;24.62;48.98;99211.81;5025655;27;118944;-73
2022/07/21 10:16:40;;;;;;;2.60;1.20;;;23.70;1.00;;;25.03;49.44;99214.47;5026580;27;118138;-75
2022/07/21 10:19:17;;;;;;;2.60;1.15;;;24.10;1.00;;;25.44;47.21;99193.28;5040190;27;130064;-75
2022/07/21 10:21:56;;;;;;;4.82;1.48;;;24.00;1.00;;;25.14;46.53;99191.34;5025452;27;128643;-74
2022/07/21 10:24:30;;;;;;;3.20;1.17;;;24.00;1.00;;;25.29;46.69;99195.50;5040495;27;119755;-75
2022/07/21 10:27:07;;;;;;;3.15;1.13;;;24.10;1.00;;;25.67;44.95;99195.31;5040316;27;119924;-75